メインページ
METAR-TAF:

METAR-TAF

空港 :

ソフィア, ブルガリア

ソフィア空港

緯度: 42-39N, 経度: 023-23E, 海抜: 586m

現時点の気象観測

当レポートは31分前の11:30(UTC)に作成
南西の風 3kt、から北西の間で変化する
気温 21°C
湿度 38%
気圧 1022 hPa
視程10km以上
1,500メートル以下は雲なし、積乱雲なし

METAR: LBSF 241130Z 23003KT 170V320 CAVOK 21/06 Q1022 NOSIG

時間: 14:01 (12:01 UTC)

予報

当レポートは1時間1分前の11:00(UTC)に作成
予報は24日の 12時(UTC)から 25日の 12時(UTC)まで有効
北/北東の風 8kt
視程10km以上
1,500メートル以下は雲なし、積乱雲なし
24日の 13時(UTC)から 24日の 18時(UTC)まで一時的に
視程10km以上
高度5000ftの雲は散在している
24日の 19時(UTC)から 24日の 21時(UTC)まで徐々に
変向風 4kt

TAF: LBSF 241100Z 2412/2512 03008KT CAVOK TEMPO 2413/2418 9999 SCT050 BECMG 2419/2421 VRB04KT

4,000以上の空港の気象観測と天気予報(METAR報とTAF報)

利用可能な観測所は地図上に黄色い丸と赤い丸で示す。

丸の上にカーソルを重ねると観測所名を参照できる。

次にクリックすると気象観測と天気予報を参照できる。

マップの切り替え:黒色「×」印の緑ボタンをクリックして拡大、「-」印の緑ボタンをクリックして縮小、緑色の三角印をクリックして隣りの地図に切り替え


METAR-TAF: